Time;durP1;ratioP1;P1;durP2;ratioP2;P2;SDS_P1;SDS_P2;PMS_P1;PMS_P2;Temp;Humidity;BMP_temperature;BMP_pressure;BME280_temperature;BME280_humidity;BME280_pressure;Samples;Min_cycle;Max_cycle;Signal;HPM_P1;HPM_P2
2021/12/31 00:01:20;;;;;;;13.95;8.07;;;;;;;4.36;74.34;96034.09;5010262;28;20026;-84
2021/12/31 00:03:45;;;;;;;11.68;7.72;;;;;;;4.30;74.14;96040.78;5008376;28;20413;-83
2021/12/31 00:06:11;;;;;;;13.15;7.78;;;;;;;4.34;74.12;96034.22;5008742;28;20500;-84
2021/12/31 00:08:36;;;;;;;10.68;7.07;;;;;;;4.39;74.40;96039.16;5008452;28;20049;-84
2021/12/31 00:11:01;;;;;;;14.85;7.30;;;;;;;4.43;73.62;96045.94;5009940;28;20477;-84
2021/12/31 00:13:27;;;;;;;12.98;8.10;;;;;;;4.52;74.13;96047.00;5007573;28;20022;-83
2021/12/31 00:15:53;;;;;;;13.13;8.20;;;;;;;4.51;73.27;96054.16;5008121;28;20033;-83
2021/12/31 00:18:18;;;;;;;13.43;8.80;;;;;;;4.49;74.56;96061.38;4991570;28;20026;-84
2021/12/31 00:20:44;;;;;;;12.68;7.75;;;;;;;4.43;74.04;96053.91;5008780;28;20037;-85
2021/12/31 00:23:12;;;;;;;13.20;8.43;;;;;;;4.42;74.14;96052.19;5008363;28;20026;-84
2021/12/31 00:25:40;;;;;;;10.25;7.38;;;;;;;4.41;73.94;96055.84;5008926;28;20101;-84
2021/12/31 00:28:05;;;;;;;14.30;8.35;;;;;;;4.45;74.03;96058.13;5009327;28;20076;-85
2021/12/31 00:30:31;;;;;;;12.57;8.27;;;;;;;4.37;74.26;96057.06;5006223;28;20022;-84
2021/12/31 00:32:56;;;;;;;12.63;8.20;;;;;;;4.41;73.71;96063.81;5007774;28;20501;-83
2021/12/31 00:35:22;;;;;;;13.13;7.95;;;;;;;4.45;73.87;96065.25;4990880;28;20026;-83
2021/12/31 00:37:47;;;;;;;13.43;8.63;;;;;;;4.46;74.18;96077.56;5008843;28;20429;-83
2021/12/31 00:40:14;;;;;;;12.98;8.40;;;;;;;4.47;74.09;96067.78;5007587;28;20034;-84
2021/12/31 00:42:39;;;;;;;11.93;7.70;;;;;;;4.48;73.61;96065.03;5008532;28;20037;-85
2021/12/31 00:45:06;;;;;;;12.55;8.32;;;;;;;4.54;73.18;96053.91;5009472;28;20026;-83
2021/12/31 00:47:32;;;;;;;11.57;7.55;;;;;;;4.60;73.98;96044.56;5012430;28;20026;-84
2021/12/31 00:49:57;;;;;;;13.15;8.40;;;;;;;4.60;73.42;96036.59;5031582;28;20030;-83
2021/12/31 00:52:22;;;;;;;11.70;7.80;;;;;;;4.64;73.14;96039.84;5031375;28;20041;-83
2021/12/31 00:54:49;;;;;;;14.95;8.65;;;;;;;4.64;73.22;96027.41;5031971;28;20081;-83
2021/12/31 00:57:14;;;;;;;14.15;8.52;;;;;;;4.63;73.05;96036.34;5029331;28;20029;-83
2021/12/31 00:59:41;;;;;;;15.75;9.85;;;;;;;4.62;72.99;96044.44;5023232;28;20032;-84
2021/12/31 01:02:06;;;;;;;14.88;9.38;;;;;;;4.63;73.81;96043.47;5028895;28;20355;-84
2021/12/31 01:04:32;;;;;;;14.82;8.60;;;;;;;4.69;73.45;96037.69;5026216;28;20049;-82
2021/12/31 01:06:58;;;;;;;14.70;8.73;;;;;;;4.66;72.76;96030.78;5027010;28;20044;-83
2021/12/31 01:09:25;;;;;;;13.93;9.00;;;;;;;4.68;73.60;96035.97;5023452;28;20022;-80
2021/12/31 01:11:50;;;;;;;15.73;9.02;;;;;;;4.71;73.80;96038.38;5022869;28;20026;-81
2021/12/31 01:17:00;;;;;;;12.40;7.65;;;;;;;4.73;73.28;96036.44;5023711;28;20101;-81
2021/12/31 01:21:52;;;;;;;9.80;6.63;;;;;;;4.74;72.61;96032.81;5007691;28;20036;-83
2021/12/31 01:24:18;;;;;;;11.75;6.90;;;;;;;4.74;72.81;96046.09;5008834;28;20479;-82
2021/12/31 01:26:44;;;;;;;10.55;6.25;;;;;;;4.74;72.60;96058.56;5007465;28;20558;-83
2021/12/31 01:29:10;;;;;;;10.15;6.20;;;;;;;4.70;72.57;96042.00;5008542;28;20025;-83
2021/12/31 01:31:35;;;;;;;8.77;6.22;;;;;;;4.68;72.40;96049.25;5007698;28;20030;-83
2021/12/31 01:34:01;;;;;;;10.52;6.60;;;;;;;4.62;72.37;96047.97;5006722;28;20470;-82
2021/12/31 01:36:27;;;;;;;10.63;6.80;;;;;;;4.63;72.12;96035.50;5007881;28;20084;-82
2021/12/31 01:38:52;;;;;;;9.80;6.45;;;;;;;4.66;72.53;96045.91;5007929;28;20022;-82
2021/12/31 01:41:19;;;;;;;10.38;6.70;;;;;;;4.64;72.55;96043.34;5007906;28;20057;-83
2021/12/31 01:43:45;;;;;;;10.65;6.55;;;;;;;4.62;72.29;96042.63;5007001;28;20021;-83
2021/12/31 01:46:11;;;;;;;8.75;6.30;;;;;;;4.59;72.14;96040.22;5007017;28;20080;-84
2021/12/31 01:51:21;;;;;;;8.50;5.78;;;;;;;4.53;72.35;96054.84;5007561;28;20030;-85
2021/12/31 01:53:46;;;;;;;9.43;5.68;;;;;;;4.49;72.19;96060.53;5006314;28;20026;-85
2021/12/31 01:56:12;;;;;;;8.63;5.18;;;;;;;4.45;71.75;96049.31;5005304;28;20042;-85
2021/12/31 01:58:37;;;;;;;7.32;4.72;;;;;;;4.39;71.64;96084.31;5006769;28;20026;-86
2021/12/31 02:01:04;;;;;;;6.15;4.30;;;;;;;4.34;71.42;96074.06;5005269;28;20464;-86
2021/12/31 02:03:30;;;;;;;6.75;4.65;;;;;;;4.33;71.42;96075.91;5006732;28;20531;-84
2021/12/31 02:05:55;;;;;;;8.07;5.22;;;;;;;4.36;71.48;96079.25;5005396;28;20030;-86
2021/12/31 02:08:21;;;;;;;6.13;4.05;;;;;;;4.33;71.83;96083.00;5007450;28;20034;-85
2021/12/31 02:10:50;;;;;;;9.30;5.63;;;;;;;4.22;72.65;96080.38;5007546;28;20116;-85
2021/12/31 02:13:16;;;;;;;9.73;6.30;;;;;;;4.00;73.69;96082.06;5006993;28;20129;-85
2021/12/31 02:15:42;;;;;;;10.60;6.78;;;;;;;4.12;73.51;96081.09;5006634;28;20022;-85
2021/12/31 02:18:09;;;;;;;10.57;6.60;;;;;;;4.25;72.98;96077.47;5006896;28;20033;-86
2021/12/31 02:20:36;;;;;;;9.00;6.10;;;;;;;4.36;72.08;96080.13;5007562;28;20575;-82
2021/12/31 02:23:08;;;;;;;11.55;6.82;;;;;;;4.35;72.64;96082.91;5005015;28;20030;-82
2021/12/31 02:25:36;;;;;;;9.93;5.90;;;;;;;4.46;72.47;96085.53;5007507;28;20022;-81
2021/12/31 02:28:01;;;;;;;9.00;5.90;;;;;;;4.37;72.84;96083.63;5006694;28;20108;-81
2021/12/31 02:30:29;;;;;;;9.63;6.35;;;;;;;4.40;72.48;96083.38;5006977;28;20500;-82
2021/12/31 02:32:55;;;;;;;10.38;6.32;;;;;;;4.40;72.21;96072.75;5006871;28;20523;-83
2021/12/31 02:35:20;;;;;;;8.75;6.50;;;;;;;4.29;72.81;96086.88;5006240;28;20034;-83
2021/12/31 02:37:45;;;;;;;9.35;6.18;;;;;;;4.35;72.30;96086.41;5007144;28;20030;-83
2021/12/31 02:40:13;;;;;;;10.38;6.88;;;;;;;4.39;72.33;96093.16;5005863;28;20145;-82
2021/12/31 02:42:39;;;;;;;10.20;6.47;;;;;;;4.39;72.50;96109.09;5007102;28;20108;-82
2021/12/31 02:45:07;;;;;;;11.38;6.88;;;;;;;4.44;72.44;96100.75;5005869;28;20065;-83
2021/12/31 02:47:32;;;;;;;9.73;6.55;;;;;;;4.51;72.39;96098.44;5006749;28;20018;-81
2021/12/31 02:49:58;;;;;;;10.13;6.85;;;;;;;4.52;70.72;96113.41;5006252;28;20092;-83
2021/12/31 02:52:23;;;;;;;11.13;6.70;;;;;;;4.50;70.86;96100.25;5007505;28;20026;-81
2021/12/31 02:54:49;;;;;;;11.63;7.13;;;;;;;4.52;70.85;96110.75;5010659;28;20041;-82
2021/12/31 02:57:15;;;;;;;10.75;6.70;;;;;;;4.55;71.01;96108.72;5010815;28;20033;-82
2021/12/31 02:59:40;;;;;;;10.00;6.50;;;;;;;4.58;70.74;96108.47;5030747;28;20033;-82
2021/12/31 03:02:06;;;;;;;10.43;7.00;;;;;;;4.45;70.37;96102.44;5011875;28;20033;-83
2021/12/31 03:04:36;;;;;;;10.38;7.10;;;;;;;4.39;70.41;96108.22;5030389;28;20049;-83
2021/12/31 03:07:06;;;;;;;11.35;7.25;;;;;;;4.30;70.85;96109.81;5028448;28;20492;-86
2021/12/31 03:09:32;;;;;;;10.32;7.07;;;;;;;4.28;70.64;96112.59;4980793;28;20512;-84
2021/12/31 03:11:58;;;;;;;10.27;5.78;;;;;;;4.37;70.32;96118.97;5028683;28;20466;-84
2021/12/31 03:14:23;;;;;;;10.57;6.40;;;;;;;4.24;70.17;96113.78;5012199;28;20018;-83
2021/12/31 03:16:49;;;;;;;10.32;6.63;;;;;;;4.17;70.57;96117.91;5012731;28;20025;-85
2021/12/31 03:19:14;;;;;;;11.23;6.75;;;;;;;4.07;70.49;96118.63;4994567;28;20495;-85
2021/12/31 03:21:40;;;;;;;10.18;6.53;;;;;;;4.09;70.18;96123.81;4996206;28;20111;-84
2021/12/31 03:24:05;;;;;;;11.27;6.85;;;;;;;4.14;70.84;96126.97;5028545;28;20026;-82
2021/12/31 03:26:31;;;;;;;11.63;6.53;;;;;;;4.20;69.52;96134.44;5029967;28;20036;-83
2021/12/31 03:28:56;;;;;;;13.57;6.55;;;;;;;4.06;70.57;96140.81;5029643;28;20034;-82
2021/12/31 03:31:22;;;;;;;11.30;6.55;;;;;;;4.01;70.34;96140.34;5012083;28;20033;-82
2021/12/31 03:33:47;;;;;;;10.43;6.28;;;;;;;3.81;71.09;96140.06;5011759;28;20030;-82
2021/12/31 03:36:12;;;;;;;9.70;6.25;;;;;;;3.82;71.00;96133.78;5011456;28;20024;-80
2021/12/31 03:38:38;;;;;;;9.23;6.50;;;;;;;3.87;70.83;96133.41;5030055;28;20025;-84
2021/12/31 03:41:03;;;;;;;10.43;6.65;;;;;;;3.88;71.00;96144.91;5028812;28;20025;-81
2021/12/31 03:43:29;;;;;;;10.85;6.55;;;;;;;3.93;70.56;96143.56;5012663;28;20052;-83
2021/12/31 03:45:54;;;;;;;9.65;6.40;;;;;;;4.01;70.42;96148.31;5028587;28;20561;-82
2021/12/31 03:48:20;;;;;;;10.82;7.10;;;;;;;3.67;70.97;96151.72;5029890;28;20029;-82
2021/12/31 03:50:45;;;;;;;12.00;7.22;;;;;;;3.79;71.13;96152.59;5028921;28;20029;-83
2021/12/31 03:53:11;;;;;;;10.40;6.85;;;;;;;3.77;71.39;96159.81;5029283;28;20132;-83
2021/12/31 03:55:36;;;;;;;10.07;6.15;;;;;;;3.80;71.37;96161.41;5011653;28;20021;-83
2021/12/31 03:58:02;;;;;;;10.55;6.82;;;;;;;3.82;70.62;96155.00;5029000;28;20101;-85
2021/12/31 04:00:29;;;;;;;10.85;6.63;;;;;;;3.82;70.58;96155.00;5012717;28;20033;-83
2021/12/31 04:02:57;;;;;;;11.52;6.63;;;;;;;3.83;70.71;96148.75;5027662;28;20100;-84
2021/12/31 04:05:26;;;;;;;11.50;6.78;;;;;;;3.70;71.12;96145.34;4996173;28;20504;-84
2021/12/31 04:07:52;;;;;;;12.52;7.15;;;;;;;3.71;70.69;96136.41;5028420;28;20024;-82
2021/12/31 04:10:17;;;;;;;12.57;7.45;;;;;;;3.72;70.92;96138.13;4995527;28;20124;-82
2021/12/31 04:12:43;;;;;;;18.02;9.20;;;;;;;3.76;70.96;96147.53;5010889;28;20031;-88
2021/12/31 04:15:09;;;;;;;16.38;9.25;;;;;;;3.75;71.14;96159.09;5028917;28;20029;-84
2021/12/31 04:17:34;;;;;;;14.63;8.73;;;;;;;3.82;70.75;96160.31;5011645;28;20071;-85
2021/12/31 04:20:00;;;;;;;15.13;8.85;;;;;;;3.76;71.28;96150.16;5028229;28;20029;-84
2021/12/31 04:22:26;;;;;;;15.07;8.75;;;;;;;3.77;70.42;96140.41;5030075;28;20377;-85
2021/12/31 04:24:52;;;;;;;14.57;8.25;;;;;;;3.36;71.77;96145.22;5010501;28;20029;-83
2021/12/31 04:27:19;;;;;;;13.95;8.15;;;;;;;3.30;71.65;96147.38;5029372;28;20092;-83
2021/12/31 04:29:50;;;;;;;13.15;8.15;;;;;;;3.52;71.70;96155.53;5010640;28;20029;-82
2021/12/31 04:32:16;;;;;;;13.32;8.07;;;;;;;3.47;71.69;96161.16;5028904;28;20029;-82
2021/12/31 04:34:41;;;;;;;10.60;6.95;;;;;;;3.58;71.12;96152.41;5028828;28;20416;-82
2021/12/31 04:37:07;;;;;;;13.00;7.95;;;;;;;3.57;71.44;96156.88;5028247;28;20030;-81
2021/12/31 04:39:32;;;;;;;14.25;8.07;;;;;;;3.56;71.65;96165.78;5011560;28;20022;-85
2021/12/31 04:41:57;;;;;;;12.45;7.35;;;;;;;3.39;71.32;96155.59;5027666;28;20018;-84
2021/12/31 04:44:23;;;;;;;11.55;6.63;;;;;;;3.46;71.70;96163.00;5029432;28;20087;-85
2021/12/31 04:46:48;;;;;;;12.95;7.80;;;;;;;3.40;71.41;96154.66;5028005;28;20508;-84
2021/12/31 04:49:14;;;;;;;11.63;6.70;;;;;;;3.45;71.13;96163.13;5028817;28;20026;-83
2021/12/31 04:51:39;;;;;;;8.77;6.00;;;;;;;3.43;70.99;96168.50;5028186;28;20037;-81
2021/12/31 04:54:07;;;;;;;11.40;6.40;;;;;;;3.26;72.13;96164.47;5028146;28;20087;-80
2021/12/31 04:56:32;;;;;;;11.18;6.68;;;;;;;3.37;71.68;96158.34;5028259;28;20034;-84
2021/12/31 04:58:57;;;;;;;12.85;7.18;;;;;;;3.47;71.91;96169.13;5027788;28;20103;-83
2021/12/31 05:01:23;;;;;;;10.05;6.70;;;;;;;3.55;71.23;96168.56;5029555;28;20463;-83
2021/12/31 05:03:49;;;;;;;10.52;6.95;;;;;;;3.39;71.20;96167.06;5027172;28;20045;-83
2021/12/31 05:06:15;;;;;;;10.88;6.40;;;;;;;3.54;71.10;96161.56;5028341;28;20040;-83
2021/12/31 05:08:41;;;;;;;9.73;5.80;;;;;;;3.59;70.49;96162.91;5027486;28;20025;-82
2021/12/31 05:11:06;;;;;;;9.02;5.70;;;;;;;3.41;71.58;96166.94;5027793;28;20024;-82
2021/12/31 05:13:31;;;;;;;10.57;5.88;;;;;;;3.51;71.50;96175.91;5027392;28;20026;-82
2021/12/31 05:16:02;;;;;;;9.70;5.90;;;;;;;3.39;71.46;96168.84;5026878;28;20026;-82
2021/12/31 05:18:27;;;;;;;9.98;5.82;;;;;;;3.41;72.01;96167.78;5028166;28;20037;-82
2021/12/31 05:20:53;;;;;;;10.48;6.85;;;;;;;3.42;71.79;96173.91;5027461;28;20038;-83
2021/12/31 05:23:18;;;;;;;9.00;5.45;;;;;;;3.45;71.37;96173.72;5010036;28;20494;-82
2021/12/31 05:25:44;;;;;;;8.07;5.47;;;;;;;3.41;71.86;96166.94;5026918;28;20029;-83
2021/12/31 05:28:09;;;;;;;10.40;6.25;;;;;;;3.48;71.14;96172.63;5027904;28;20508;-82
2021/12/31 05:30:34;;;;;;;8.65;5.70;;;;;;;3.57;71.25;96171.94;5027316;28;20022;-83
2021/12/31 05:33:00;;;;;;;9.77;6.30;;;;;;;3.45;71.42;96168.41;5027636;28;20034;-82
2021/12/31 05:35:25;;;;;;;10.65;6.28;;;;;;;3.45;71.81;96173.72;5009244;28;20034;-82
2021/12/31 05:37:51;;;;;;;10.68;6.35;;;;;;;3.45;71.61;96173.72;5027357;28;20025;-84
2021/12/31 05:40:16;;;;;;;10.15;6.30;;;;;;;3.51;71.14;96178.56;5027592;28;20116;-82
2021/12/31 05:42:42;;;;;;;9.43;6.53;;;;;;;3.60;71.04;96177.00;5026710;28;20021;-82
2021/12/31 05:45:09;;;;;;;9.43;5.85;;;;;;;3.57;71.09;96188.72;5027897;28;20033;-82
2021/12/31 05:47:35;;;;;;;10.88;6.07;;;;;;;3.64;71.32;96178.50;5026666;28;20026;-85
2021/12/31 05:50:04;;;;;;;10.57;6.78;;;;;;;3.64;70.70;96182.94;5028026;28;20025;-82
2021/12/31 05:52:30;;;;;;;10.45;6.80;;;;;;;3.65;70.84;96188.13;5026677;28;20052;-82
2021/12/31 05:54:55;;;;;;;12.75;6.82;;;;;;;3.69;70.18;96186.94;5027629;28;20017;-83
2021/12/31 05:57:20;;;;;;;12.00;6.65;;;;;;;3.67;70.31;96194.19;5026832;28;20025;-81
2021/12/31 05:59:46;;;;;;;11.45;7.03;;;;;;;3.66;70.41;96196.94;5027051;28;20021;-81
2021/12/31 06:02:11;;;;;;;10.13;6.75;;;;;;;3.74;70.03;96199.84;5027389;28;20025;-83
2021/12/31 06:04:37;;;;;;;9.52;6.53;;;;;;;3.67;70.08;96191.53;5026399;28;20424;-82
2021/12/31 06:07:03;;;;;;;11.60;6.55;;;;;;;3.69;70.04;96199.38;5009646;28;20036;-83
2021/12/31 06:09:30;;;;;;;11.30;7.05;;;;;;;3.69;70.62;96194.88;5025759;28;20117;-83
2021/12/31 06:11:56;;;;;;;12.10;7.20;;;;;;;3.71;70.95;96195.63;5027021;28;20089;-83
2021/12/31 06:14:21;;;;;;;10.85;6.68;;;;;;;3.76;70.08;96194.44;4992307;28;20498;-83
2021/12/31 06:16:48;;;;;;;11.98;7.18;;;;;;;3.72;70.28;96196.50;5026613;28;20025;-82
2021/12/31 06:19:13;;;;;;;12.93;7.80;;;;;;;3.73;70.23;96199.97;5009292;28;20026;-82
2021/12/31 06:21:39;;;;;;;11.07;7.18;;;;;;;3.58;70.55;96198.34;5025790;28;20040;-82
2021/12/31 06:24:05;;;;;;;11.82;7.25;;;;;;;3.66;71.08;96197.78;5026997;28;20021;-81
2021/12/31 06:26:31;;;;;;;14.40;7.72;;;;;;;3.52;71.58;96206.78;5025620;28;20033;-85
2021/12/31 06:28:57;;;;;;;10.05;6.78;;;;;;;3.47;71.75;96203.59;5021488;28;20118;-87
2021/12/31 06:31:22;;;;;;;9.65;6.35;;;;;;;3.58;71.70;96211.63;5014998;28;20473;-87
2021/12/31 06:33:48;;;;;;;9.32;6.38;;;;;;;3.63;71.04;96207.78;5007028;28;20025;-84
2021/12/31 06:36:13;;;;;;;9.85;6.25;;;;;;;3.69;71.00;96217.94;5006994;28;20026;-84
2021/12/31 06:38:39;;;;;;;9.73;6.50;;;;;;;3.81;70.72;96219.66;5006815;28;20065;-85
2021/12/31 06:41:04;;;;;;;12.43;6.97;;;;;;;3.95;70.30;96217.75;5007439;28;20420;-84
2021/12/31 06:43:30;;;;;;;9.50;6.78;;;;;;;3.66;71.73;96223.47;5006422;28;20480;-85
2021/12/31 06:45:55;;;;;;;10.52;6.72;;;;;;;3.74;71.49;96223.72;5023125;28;20026;-78
2021/12/31 06:48:21;;;;;;;10.98;7.30;;;;;;;3.62;72.11;96222.84;5032450;28;20033;-80
2021/12/31 06:50:46;;;;;;;12.18;7.00;;;;;;;3.76;71.91;96223.63;5026602;28;20022;-80
2021/12/31 06:53:11;;;;;;;14.18;7.90;;;;;;;3.71;72.16;96218.66;5013469;28;20030;-79
2021/12/31 06:55:37;;;;;;;13.35;7.60;;;;;;;3.55;72.52;96222.47;5033333;28;20029;-80
2021/12/31 06:58:02;;;;;;;11.73;7.80;;;;;;;3.78;71.62;96222.56;5029741;28;20029;-81
2021/12/31 07:00:28;;;;;;;19.02;10.27;;;;;;;3.79;71.56;96226.06;5025662;28;20025;-81
2021/12/31 07:03:04;;;;;;;18.77;10.60;;;;;;;3.99;71.02;96231.66;5030744;28;20056;-79
2021/12/31 07:05:30;;;;;;;14.65;7.72;;;;;;;3.93;70.57;96233.81;5020142;28;20021;-82
2021/12/31 07:07:55;;;;;;;16.63;8.60;;;;;;;3.81;70.89;96224.97;5035834;28;20075;-80
2021/12/31 07:10:21;;;;;;;13.45;7.95;;;;;;;3.90;71.04;96226.06;5043101;28;20025;-83
2021/12/31 07:12:46;;;;;;;12.77;7.97;;;;;;;3.95;71.22;96213.31;5024886;28;20511;-82
2021/12/31 07:15:11;;;;;;;13.82;8.00;;;;;;;3.98;71.19;96225.53;5016051;28;20033;-81
2021/12/31 07:17:37;;;;;;;10.02;7.00;;;;;;;4.17;70.90;96224.13;5024909;28;20075;-77
2021/12/31 07:20:03;;;;;;;14.27;9.32;;;;;;;4.29;70.48;96224.97;5008201;28;20029;-80
2021/12/31 07:22:28;;;;;;;12.48;7.45;;;;;;;4.37;70.21;96221.75;5004211;28;20046;-82
2021/12/31 07:24:54;;;;;;;11.40;7.55;;;;;;;4.46;70.05;96223.69;5019877;28;20056;-80
2021/12/31 07:27:19;;;;;;;12.18;7.72;;;;;;;4.47;69.97;96225.34;5024351;28;20044;-82
2021/12/31 07:29:44;;;;;;;14.60;8.15;;;;;;;4.58;70.10;96225.38;4990923;28;20032;-80
2021/12/31 07:32:10;;;;;;;11.27;7.50;;;;;;;4.66;69.83;96230.06;5024490;28;20078;-80
2021/12/31 07:34:35;;;;;;;12.43;7.72;;;;;;;4.72;69.74;96222.59;5005256;28;20041;-80
2021/12/31 07:37:01;;;;;;;14.70;7.78;;;;;;;4.77;69.12;96223.91;5021575;28;20034;-81
2021/12/31 07:39:31;;;;;;;11.18;7.32;;;;;;;4.75;69.07;96223.22;5014274;28;20042;-79
2021/12/31 07:41:56;;;;;;;11.80;7.43;;;;;;;4.87;69.22;96218.72;5028017;28;20026;-80
2021/12/31 07:44:22;;;;;;;12.82;7.20;;;;;;;4.92;69.75;96218.34;5006970;28;20455;-79
2021/12/31 07:46:47;;;;;;;10.57;7.15;;;;;;;4.98;68.99;96225.81;5012380;28;20025;-80
2021/12/31 07:49:13;;;;;;;12.00;7.43;;;;;;;5.02;68.65;96221.97;5012154;28;20036;-79
2021/12/31 07:51:38;;;;;;;13.73;8.25;;;;;;;5.09;68.76;96224.13;5011086;28;20045;-80
2021/12/31 07:54:04;;;;;;;15.07;8.40;;;;;;;5.17;68.70;96227.03;5028196;28;20443;-80
2021/12/31 07:56:30;;;;;;;15.18;9.10;;;;;;;5.11;68.17;96239.00;5008146;28;20034;-79
2021/12/31 07:58:55;;;;;;;15.65;9.75;;;;;;;5.11;68.72;96241.66;5021462;28;20029;-82
2021/12/31 08:01:21;;;;;;;13.52;8.65;;;;;;;5.13;69.07;96241.53;5025192;28;20079;-80
2021/12/31 08:03:46;;;;;;;13.40;8.95;;;;;;;5.21;67.69;96236.44;5024064;28;20073;-79
2021/12/31 08:06:12;;;;;;;13.68;8.65;;;;;;;5.26;68.95;96238.72;5027178;28;20428;-81
2021/12/31 08:08:37;;;;;;;13.77;8.15;;;;;;;5.31;68.09;96245.38;5013734;28;20425;-80
2021/12/31 08:11:03;;;;;;;15.23;8.63;;;;;;;5.38;68.08;96247.53;5016827;28;20092;-82
2021/12/31 08:13:28;;;;;;;12.70;8.55;;;;;;;5.39;67.84;96243.91;5028180;28;20523;-81
2021/12/31 08:15:54;;;;;;;15.73;9.95;;;;;;;5.44;67.85;96241.72;5026499;28;20408;-82
2021/12/31 08:18:19;;;;;;;16.48;10.05;;;;;;;5.46;67.75;96245.13;5027965;28;20531;-82
2021/12/31 08:20:45;;;;;;;20.50;12.43;;;;;;;5.49;67.97;96238.69;5011437;28;20416;-82
2021/12/31 08:23:11;;;;;;;22.42;12.63;;;;;;;5.46;67.92;96249.56;5020292;28;20037;-81
2021/12/31 08:25:37;;;;;;;22.30;12.52;;;;;;;5.55;67.59;96240.84;5024753;28;20378;-82
2021/12/31 08:28:03;;;;;;;22.05;12.93;;;;;;;5.61;67.04;96231.53;5008866;28;20083;-83
2021/12/31 08:30:29;;;;;;;21.30;12.25;;;;;;;5.64;66.54;96236.59;4993212;28;20053;-84
2021/12/31 08:32:54;;;;;;;19.13;12.60;;;;;;;5.66;66.63;96237.28;5025050;28;20046;-83
2021/12/31 08:35:19;;;;;;;22.90;11.65;;;;;;;5.76;66.34;96222.25;5021688;28;20037;-82
2021/12/31 08:37:45;;;;;;;17.15;10.60;;;;;;;6.05;65.87;96221.69;5018821;28;20482;-82
2021/12/31 08:40:11;;;;;;;17.20;10.57;;;;;;;6.28;64.94;96213.56;5024159;28;20436;-84
2021/12/31 08:42:38;;;;;;;15.68;10.50;;;;;;;6.46;64.33;96217.44;5017538;28;20076;-83
2021/12/31 08:45:04;;;;;;;16.73;10.88;;;;;;;6.70;63.89;96222.47;5008131;28;20052;-84
2021/12/31 08:47:30;;;;;;;14.35;9.32;;;;;;;6.85;62.87;96214.13;5027860;28;20057;-85
2021/12/31 08:49:55;;;;;;;13.05;9.20;;;;;;;7.01;62.20;96224.28;5018397;28;20029;-85
2021/12/31 08:52:20;;;;;;;13.52;9.73;;;;;;;7.04;62.30;96219.50;5022766;28;20456;-86
2021/12/31 08:54:46;;;;;;;13.32;8.23;;;;;;;7.14;61.95;96208.88;4980459;28;20508;-85
2021/12/31 08:57:11;;;;;;;15.18;8.95;;;;;;;7.21;61.78;96209.16;5022068;28;20535;-83
2021/12/31 08:59:37;;;;;;;12.52;8.68;;;;;;;7.28;61.73;96202.31;5007966;28;20026;-83
2021/12/31 09:02:02;;;;;;;13.60;8.73;;;;;;;7.39;61.37;96216.50;5006897;28;20451;-82
2021/12/31 09:04:28;;;;;;;16.08;8.98;;;;;;;7.49;60.95;96204.03;5005629;28;20063;-87
2021/12/31 09:06:53;;;;;;;11.57;7.85;;;;;;;7.59;60.73;96200.53;5007285;28;20029;-84
2021/12/31 09:09:19;;;;;;;16.30;8.43;;;;;;;7.56;60.51;96196.28;5009911;28;20033;-83
2021/12/31 09:11:44;;;;;;;11.60;7.70;;;;;;;7.63;60.72;96191.25;5026385;28;20022;-85
2021/12/31 09:14:11;;;;;;;11.80;8.13;;;;;;;7.76;60.18;96194.50;5026455;28;20025;-81
2021/12/31 09:16:36;;;;;;;13.70;8.85;;;;;;;7.75;60.24;96191.97;5026769;28;20148;-79
2021/12/31 09:19:02;;;;;;;16.23;8.43;;;;;;;7.82;60.22;96189.56;5009199;28;20069;-80
2021/12/31 09:21:27;;;;;;;13.27;8.70;;;;;;;7.84;60.07;96191.13;4985662;28;20026;-80
2021/12/31 09:23:53;;;;;;;14.80;8.63;;;;;;;7.96;60.03;96183.81;5025678;28;20041;-81
2021/12/31 09:26:18;;;;;;;13.77;8.50;;;;;;;7.97;60.04;96182.81;5030912;28;20385;-80
2021/12/31 09:28:44;;;;;;;13.82;8.45;;;;;;;7.98;60.49;96189.81;5006459;28;20037;-80
2021/12/31 09:31:10;;;;;;;11.40;7.50;;;;;;;8.13;60.14;96186.72;5007176;28;20037;-81
2021/12/31 09:33:35;;;;;;;12.10;7.93;;;;;;;8.19;59.22;96188.00;5003930;28;20084;-79
2021/12/31 09:36:01;;;;;;;12.13;7.93;;;;;;;8.14;59.79;96183.09;5004489;28;20021;-80
2021/12/31 09:38:26;;;;;;;11.65;7.90;;;;;;;7.98;60.22;96184.50;5006326;28;20103;-80
2021/12/31 09:40:52;;;;;;;13.65;8.73;;;;;;;8.02;60.58;96175.22;5008213;28;20071;-80
2021/12/31 09:43:17;;;;;;;14.55;9.25;;;;;;;8.23;60.34;96176.03;4992122;28;20079;-80
2021/12/31 09:45:44;;;;;;;13.32;8.50;;;;;;;8.31;60.31;96165.44;5005657;28;20523;-81
2021/12/31 09:48:19;;;;;;;10.65;6.63;;;;;;;8.24;60.40;96162.50;5008439;28;20565;-81
2021/12/31 09:50:49;;;;;;;15.35;9.48;;;;;;;8.35;60.58;96158.81;5024375;28;20470;-81
2021/12/31 09:53:15;;;;;;;14.95;7.53;;;;;;;8.48;60.21;96158.50;5008392;28;20033;-84
2021/12/31 09:55:41;;;;;;;11.73;7.90;;;;;;;8.60;59.57;96156.53;5013164;28;20044;-84
2021/12/31 09:58:09;;;;;;;11.07;6.65;;;;;;;8.58;59.80;96155.81;5005775;28;20064;-82
2021/12/31 10:00:35;;;;;;;10.52;7.00;;;;;;;8.59;59.92;96154.81;5007908;28;20053;-83
2021/12/31 10:03:21;;;;;;;8.77;6.07;;;;;;;8.59;59.16;96144.13;5023534;28;20049;-82
2021/12/31 10:05:51;;;;;;;9.93;6.05;;;;;;;8.47;59.49;96139.94;5023213;28;20116;-81
2021/12/31 10:08:27;;;;;;;8.82;5.57;;;;;;;8.47;60.26;96140.78;4991061;28;20152;-83
2021/12/31 10:11:05;;;;;;;10.30;5.97;;;;;;;8.49;60.03;96135.28;5006341;28;20116;-82
2021/12/31 10:13:31;;;;;;;6.50;4.78;;;;;;;8.42;60.21;96129.69;5005301;28;20536;-83
2021/12/31 10:15:57;;;;;;;8.43;4.82;;;;;;;8.44;60.25;96135.72;5004536;28;20507;-78
2021/12/31 10:18:49;;;;;;;8.10;4.70;;;;;;;8.39;60.15;96127.31;4991855;28;20033;-80
2021/12/31 10:21:19;;;;;;;7.93;5.18;;;;;;;8.36;60.32;96125.78;5000094;28;20040;-80
2021/12/31 10:23:45;;;;;;;6.43;4.68;;;;;;;8.44;60.23;96124.19;5008778;28;20033;-79
2021/12/31 10:26:11;;;;;;;9.10;4.57;;;;;;;8.44;60.45;96124.19;4989379;28;20030;-80
2021/12/31 10:28:50;;;;;;;6.10;4.38;;;;;;;8.51;60.66;96112.75;4985435;28;20048;-78
2021/12/31 10:31:16;;;;;;;7.70;4.28;;;;;;;8.51;60.53;96118.09;5008049;28;20109;-78
2021/12/31 10:33:42;;;;;;;5.95;4.10;;;;;;;8.57;60.35;96113.19;5006085;28;20094;-79
2021/12/31 10:36:08;;;;;;;8.77;4.97;;;;;;;8.60;60.05;96104.88;4998664;28;20041;-80
2021/12/31 10:38:36;;;;;;;9.10;5.13;;;;;;;8.64;60.22;96103.59;5005668;28;20029;-82
2021/12/31 10:41:03;;;;;;;5.80;3.90;;;;;;;8.77;59.56;96104.09;5008470;28;20572;-80
2021/12/31 10:43:29;;;;;;;7.65;4.45;;;;;;;8.70;60.14;96094.97;5007318;28;20032;-78
2021/12/31 10:45:56;;;;;;;6.75;3.75;;;;;;;8.77;59.97;96087.19;5005609;28;20408;-83
2021/12/31 10:48:21;;;;;;;7.47;4.20;;;;;;;8.82;60.33;96084.09;5020227;28;20030;-83
2021/12/31 10:50:52;;;;;;;6.82;4.47;;;;;;;8.86;60.07;96090.81;5005470;28;20037;-83
2021/12/31 10:53:34;;;;;;;6.80;4.82;;;;;;;8.95;59.90;96087.22;5018042;28;20060;-83
2021/12/31 10:56:15;;;;;;;8.82;4.45;;;;;;;8.88;59.26;96086.16;5007521;28;20528;-84
2021/12/31 10:58:46;;;;;;;6.57;3.70;;;;;;;8.93;59.62;96086.53;5019097;28;20091;-84
2021/12/31 11:01:14;;;;;;;5.60;4.20;;;;;;;8.88;59.86;96091.50;5026307;28;20055;-84
2021/12/31 11:03:40;;;;;;;5.82;4.25;;;;;;;8.86;59.97;96090.81;5002608;28;20046;-84
2021/12/31 11:06:07;;;;;;;7.97;4.40;;;;;;;8.89;60.13;96086.00;5007138;28;20480;-87
2021/12/31 11:08:33;;;;;;;6.25;4.05;;;;;;;8.82;60.59;96090.25;5006875;28;20536;-85
2021/12/31 11:10:59;;;;;;;5.78;4.13;;;;;;;8.77;60.55;96090.72;4989164;28;20040;-85
2021/12/31 11:13:28;;;;;;;5.85;4.30;;;;;;;8.53;60.38;96089.41;4981416;28;20026;-84
2021/12/31 11:15:54;;;;;;;7.22;4.10;;;;;;;8.63;61.22;96091.22;4996975;28;20418;-84
2021/12/31 11:18:23;;;;;;;6.43;3.90;;;;;;;8.56;61.22;96090.13;5012317;28;20295;-84
2021/12/31 11:20:48;;;;;;;7.47;4.28;;;;;;;8.61;61.09;96091.34;5012375;28;20529;-85
2021/12/31 11:23:14;;;;;;;6.72;4.30;;;;;;;8.69;61.28;96089.78;4994245;28;20480;-85
2021/12/31 11:25:59;;;;;;;6.43;4.10;;;;;;;8.66;62.41;96090.91;4993451;28;20018;-85
2021/12/31 11:28:52;;;;;;;6.80;3.85;;;;;;;8.59;62.09;96090.66;5020347;28;20029;-85
2021/12/31 11:31:20;;;;;;;7.10;3.85;;;;;;;8.70;62.41;96092.31;5007997;28;20037;-84
2021/12/31 11:33:57;;;;;;;5.90;3.42;;;;;;;8.83;62.47;96075.91;5027511;28;20496;-83
2021/12/31 11:36:52;;;;;;;6.07;3.70;;;;;;;8.88;62.35;96091.50;5009572;28;20105;-84
2021/12/31 11:39:21;;;;;;;5.13;3.67;;;;;;;8.94;62.52;96084.69;5009423;28;20029;-82
2021/12/31 11:41:47;;;;;;;8.50;4.47;;;;;;;9.00;62.50;96082.28;5008624;28;20079;-83